Time;durP1;ratioP1;P1;durP2;ratioP2;P2;SDS_P1;SDS_P2;PMS_P1;PMS_P2;Temp;Humidity;BMP_temperature;BMP_pressure;BME280_temperature;BME280_humidity;BME280_pressure;Samples;Min_cycle;Max_cycle;Signal;HPM_P1;HPM_P2
2021/12/19 00:02:09;;;;;;;7.60;5.03;;;;;;;;;;5056855;28;20451;-57
2021/12/19 00:10:05;;;;;;;8.73;4.60;;;8.90;1.00;;;;;;5059175;28;20534;-56
2021/12/19 00:12:31;;;;;;;5.50;4.00;;;8.90;1.00;;;;;;5053418;28;20451;-57
2021/12/19 00:14:56;;;;;;;7.43;4.27;;;8.90;1.00;;;;;;5057965;28;20472;-58
2021/12/19 00:17:22;;;;;;;6.53;4.10;;;8.90;1.00;;;;;;5059399;28;20180;-57
2021/12/19 00:19:47;;;;;;;7.00;3.97;;;8.90;1.00;;;;;;5061739;28;20198;-57
2021/12/19 00:22:13;;;;;;;5.33;4.00;;;8.90;1.00;;;;;;5064490;28;20180;-56
2021/12/19 00:24:38;;;;;;;7.07;4.50;;;8.80;1.00;;;;;;5063197;28;20192;-57
2021/12/19 00:27:04;;;;;;;5.43;4.00;;;8.80;1.00;;;;;;5057057;28;20195;-57
2021/12/19 00:29:30;;;;;;;9.60;4.00;;;8.80;1.00;;;;;;5046862;28;20586;-58
2021/12/19 00:31:55;;;;;;;8.63;4.17;;;8.90;1.00;;;;;;5057265;28;20192;-58
2021/12/19 00:34:21;;;;;;;6.40;4.27;;;8.90;1.00;;;;;;5058071;28;20495;-57
2021/12/19 00:36:46;;;;;;;7.50;4.20;;;8.80;1.00;;;;;;5057255;28;20233;-57
2021/12/19 00:39:12;;;;;;;10.60;5.20;;;8.80;1.00;;;;;;5057925;28;20211;-57
2021/12/19 00:41:38;;;;;;;10.03;4.53;;;8.80;1.00;;;;;;5059828;28;20666;-57
2021/12/19 00:44:08;;;;;;;5.73;4.80;;;8.80;1.00;;;;;;5061534;28;20192;-57
2021/12/19 00:46:46;;;;;;;8.17;4.80;;;8.90;1.00;;;;;;5057264;28;20452;-57
2021/12/19 00:49:12;;;;;;;6.00;5.40;;;8.90;1.00;;;;;;5057197;28;20967;-56
2021/12/19 00:51:38;;;;;;;5.77;4.67;;;8.90;1.00;;;;;;5060014;28;20424;-55
2021/12/19 00:54:08;;;;;;;7.57;5.17;;;8.90;1.00;;;;;;5054933;28;20413;-58
2021/12/19 00:56:35;;;;;;;9.40;5.10;;;8.90;1.00;;;;;;5059803;28;20749;-58
2021/12/19 00:59:01;;;;;;;11.03;5.37;;;8.80;1.00;;;;;;5062642;28;20449;-58
2021/12/19 01:01:26;;;;;;;10.47;5.57;;;8.80;1.00;;;;;;5058207;28;20944;-58
2021/12/19 01:03:52;;;;;;;9.27;5.03;;;8.90;1.00;;;;;;5058945;28;20188;-59
2021/12/19 01:06:19;;;;;;;7.00;5.13;;;8.90;1.00;;;;;;5055923;28;20262;-57
2021/12/19 01:08:45;;;;;;;8.27;4.37;;;8.70;1.00;;;;;;5053569;28;20465;-57
2021/12/19 01:11:10;;;;;;;9.73;6.03;;;8.70;1.00;;;;;;5055675;28;20421;-56
2021/12/19 01:13:36;;;;;;;8.77;5.07;;;8.90;1.00;;;;;;5055129;28;20531;-58
2021/12/19 01:16:02;;;;;;;7.10;4.97;;;8.90;1.00;;;;;;5062096;28;20208;-55
2021/12/19 01:18:28;;;;;;;9.37;5.50;;;8.80;1.00;;;;;;5057443;28;20184;-57
2021/12/19 01:20:54;;;;;;;6.73;5.43;;;8.80;1.00;;;;;;5051593;28;20491;-57
2021/12/19 01:23:22;;;;;;;8.57;5.67;;;8.80;1.00;;;;;;5047825;28;20504;-56
2021/12/19 01:25:48;;;;;;;13.23;5.80;;;8.70;1.00;;;;;;5059623;28;20464;-56
2021/12/19 01:28:14;;;;;;;8.93;6.30;;;8.70;1.00;;;;;;5058519;28;20482;-57
2021/12/19 01:30:40;;;;;;;8.93;5.13;;;8.70;1.00;;;;;;5055875;28;20481;-56
2021/12/19 01:33:05;;;;;;;6.77;6.00;;;8.70;1.00;;;;;;5054511;28;20947;-56
2021/12/19 01:35:31;;;;;;;7.77;5.67;;;8.70;1.00;;;;;;5052805;28;20302;-55
2021/12/19 01:37:56;;;;;;;8.90;5.27;;;8.70;1.00;;;;;;5060177;28;20268;-56
2021/12/19 01:40:22;;;;;;;8.90;5.97;;;8.70;1.00;;;;;;5065482;28;20191;-59
2021/12/19 01:42:52;;;;;;;11.40;5.40;;;8.70;1.00;;;;;;5059076;28;20202;-58
2021/12/19 01:45:33;;;;;;;7.90;5.30;;;8.80;1.00;;;;;;5055275;28;20179;-57
2021/12/19 01:48:00;;;;;;;7.73;5.90;;;8.70;1.00;;;;;;5059968;28;20507;-55
2021/12/19 01:50:26;;;;;;;9.00;5.43;;;8.70;1.00;;;;;;5055883;28;20461;-56
2021/12/19 01:52:52;;;;;;;6.40;5.77;;;;;;;;;;5051096;28;20737;-57
2021/12/19 01:55:18;;;;;;;9.20;5.90;;;8.70;1.00;;;;;;5057798;28;20484;-57
2021/12/19 01:57:44;;;;;;;11.87;5.67;;;8.80;1.00;;;;;;5060367;28;21077;-56
2021/12/19 02:00:31;;;;;;;9.97;6.10;;;8.80;1.00;;;;;;5062563;28;20449;-56
2021/12/19 02:02:58;;;;;;;10.77;6.23;;;8.80;1.00;;;;;;5056746;28;20424;-57
2021/12/19 02:05:26;;;;;;;12.47;6.67;;;8.90;1.00;;;;;;5055110;28;20421;-56
2021/12/19 02:07:52;;;;;;;10.77;7.10;;;8.70;1.00;;;;;;5055652;28;20533;-56
2021/12/19 02:10:24;;;;;;;9.10;7.03;;;8.60;1.00;;;;;;5055054;28;20477;-58
2021/12/19 02:12:53;;;;;;;12.23;6.83;;;8.60;1.00;;;;;;5056990;28;20750;-56
2021/12/19 02:15:21;;;;;;;9.87;7.70;;;8.70;1.00;;;;;;5052516;28;20470;-57
2021/12/19 02:17:49;;;;;;;12.47;7.57;;;8.70;1.00;;;;;;5053928;28;20499;-58
2021/12/19 02:20:16;;;;;;;9.10;6.03;;;8.70;1.00;;;;;;5059861;28;20433;-59
2021/12/19 02:22:42;;;;;;;11.37;7.90;;;8.70;1.00;;;;;;5055974;28;20508;-58
2021/12/19 02:25:09;;;;;;;9.70;7.10;;;8.70;1.00;;;;;;5057478;28;20470;-56
2021/12/19 02:27:35;;;;;;;11.70;7.43;;;8.70;1.00;;;;;;5058947;28;20804;-56
2021/12/19 02:30:02;;;;;;;8.33;7.27;;;8.70;1.00;;;;;;5060125;28;20475;-55
2021/12/19 02:32:30;;;;;;;10.40;7.87;;;8.60;1.00;;;;;;5060752;28;20668;-55
2021/12/19 02:34:58;;;;;;;9.63;7.03;;;8.70;1.00;;;;;;5056095;28;20525;-56
2021/12/19 02:40:22;;;;;;;7.83;7.03;;;8.60;1.00;;;;;;5056568;28;20928;-56
2021/12/19 02:48:11;;;;;;;13.70;7.80;;;8.50;1.00;;;;;;5055443;28;20425;-57
2021/12/19 02:50:45;;;;;;;13.97;7.80;;;8.50;1.00;;;;;;5058377;28;20469;-58
2021/12/19 02:53:11;;;;;;;9.93;7.50;;;8.50;1.00;;;;;;5053444;28;20497;-58
2021/12/19 02:55:36;;;;;;;12.50;8.00;;;8.50;1.00;;;;;;5060310;28;20568;-57
2021/12/19 02:58:02;;;;;;;11.20;8.47;;;8.50;1.00;;;;;;5053538;28;20538;-58
2021/12/19 03:00:28;;;;;;;8.40;6.70;;;8.50;1.00;;;;;;5051642;28;20196;-57
2021/12/19 03:02:53;;;;;;;9.77;7.37;;;8.60;1.00;;;;;;5050551;28;20185;-56
2021/12/19 03:05:19;;;;;;;8.93;7.40;;;8.60;1.00;;;;;;5054830;28;20484;-56
2021/12/19 03:07:45;;;;;;;9.20;7.00;;;8.60;1.00;;;;;;5057371;28;20243;-57
2021/12/19 03:18:14;;;;;;;7.70;6.33;;;8.50;1.00;;;;;;5053429;28;20454;-56
2021/12/19 03:20:42;;;;;;;9.10;6.37;;;8.50;1.00;;;;;;5053159;28;20439;-58
2021/12/19 03:23:10;;;;;;;10.50;6.30;;;8.60;1.00;;;;;;5057019;28;20422;-58
2021/12/19 03:25:36;;;;;;;12.30;7.03;;;8.50;1.00;;;;;;5053800;28;20483;-57
2021/12/19 03:28:04;;;;;;;12.13;6.70;;;8.50;1.00;;;;;;5057246;28;20433;-57
2021/12/19 03:30:30;;;;;;;8.43;5.53;;;8.40;1.00;;;;;;5057001;28;20977;-56
2021/12/19 03:32:56;;;;;;;9.13;6.43;;;8.40;1.00;;;;;;5054866;28;20428;-56
2021/12/19 03:35:23;;;;;;;7.83;5.50;;;8.40;1.00;;;;;;5049801;28;20466;-58
2021/12/19 03:37:51;;;;;;;10.13;6.00;;;;;;;;;;5053576;28;20454;-58
2021/12/19 03:40:23;;;;;;;6.47;5.87;;;8.60;1.00;;;;;;5061075;28;21282;-56
2021/12/19 03:42:50;;;;;;;8.13;5.90;;;8.50;1.00;;;;;;5055993;28;20443;-56
2021/12/19 03:45:18;;;;;;;9.00;7.03;;;8.50;1.00;;;;;;5055523;28;20520;-56
2021/12/19 03:47:45;;;;;;;9.47;6.27;;;8.40;1.00;;;;;;5053152;28;20778;-57
2021/12/19 03:50:15;;;;;;;7.10;6.20;;;8.40;1.00;;;;;;5052917;28;20454;-56
2021/12/19 03:52:41;;;;;;;14.10;6.10;;;8.40;1.00;;;;;;5052358;28;20496;-58
2021/12/19 03:55:07;;;;;;;8.60;5.33;;;8.30;1.00;;;;;;5045058;28;20582;-57
2021/12/19 03:57:33;;;;;;;6.43;5.73;;;8.30;1.00;;;;;;5044709;28;20185;-57
2021/12/19 03:59:58;;;;;;;6.33;5.50;;;8.30;1.00;;;;;;5051341;28;20505;-57
2021/12/19 04:02:26;;;;;;;5.33;4.87;;;;;;;;;;5045315;28;20185;-57
2021/12/19 04:04:54;;;;;;;6.73;5.20;;;8.40;1.00;;;;;;5051118;28;20585;-57
2021/12/19 04:07:20;;;;;;;6.80;4.97;;;8.30;1.00;;;;;;5050954;28;20782;-57
2021/12/19 04:09:46;;;;;;;7.27;5.23;;;8.50;1.00;;;;;;5053669;28;20455;-57
2021/12/19 04:12:12;;;;;;;6.73;5.30;;;8.40;1.00;;;;;;5051520;28;20457;-58
2021/12/19 04:14:37;;;;;;;9.33;5.50;;;8.50;1.00;;;;;;5046686;28;20948;-58
2021/12/19 04:17:03;;;;;;;7.27;5.20;;;8.60;1.00;;;;;;5055317;28;20184;-57
2021/12/19 04:19:29;;;;;;;9.83;6.50;;;8.50;1.00;;;;;;5047578;28;20199;-57
2021/12/19 04:21:56;;;;;;;7.73;6.37;;;8.60;1.00;;;;;;5058429;28;20187;-57
2021/12/19 04:24:22;;;;;;;8.80;6.77;;;8.40;1.00;;;;;;5050021;28;20424;-57
2021/12/19 04:26:47;;;;;;;9.10;6.63;;;8.40;1.00;;;;;;5054643;28;20968;-57
2021/12/19 04:29:13;;;;;;;9.23;6.27;;;8.40;1.00;;;;;;5049697;28;20228;-55
2021/12/19 04:31:40;;;;;;;9.60;6.23;;;8.40;1.00;;;;;;5054033;28;20666;-58
2021/12/19 04:34:05;;;;;;;8.53;6.60;;;8.50;1.00;;;;;;5054656;28;20187;-56
2021/12/19 04:36:36;;;;;;;8.30;6.40;;;8.50;1.00;;;;;;5052197;28;20976;-57
2021/12/19 04:39:26;;;;;;;8.03;6.97;;;8.50;1.00;;;;;;5048804;28;20177;-56
2021/12/19 04:50:54;;;;;;;9.20;6.47;;;8.50;1.00;;;;;;5054055;28;20416;-57
2021/12/19 04:53:05;;;;;;;9.97;6.20;;;8.40;1.00;;;;;;5046297;28;20462;-56
2021/12/19 04:55:46;;;;;;;6.30;5.70;;;8.40;1.00;;;;;;5051524;28;20497;-57
2021/12/19 05:14:10;;;;;;;7.00;5.40;;;8.40;1.00;;;;;;5059683;28;20524;-56
2021/12/19 05:16:39;;;;;;;6.77;6.10;;;8.20;1.00;;;;;;5050396;28;20471;-58
2021/12/19 05:19:31;;;;;;;7.90;5.93;;;8.20;1.00;;;;;;5044577;28;20432;-57
2021/12/19 05:21:57;;;;;;;12.13;5.37;;;;;;;;;;5049736;28;20439;-56
2021/12/19 05:26:49;;;;;;;12.33;7.43;;;;;;;;;;5050901;28;20413;-57
2021/12/19 05:29:16;;;;;;;9.10;6.37;;;8.30;1.00;;;;;;5055195;28;20916;-58
2021/12/19 05:31:42;;;;;;;7.07;5.77;;;8.20;1.00;;;;;;5054174;28;20504;-64
2021/12/19 05:34:07;;;;;;;6.90;5.90;;;8.30;1.00;;;;;;5046536;28;20412;-58
2021/12/19 05:47:25;;;;;;;8.60;5.50;;;8.30;1.00;;;;;;5041641;28;20813;-56
2021/12/19 05:49:51;;;;;;;6.90;5.80;;;8.40;1.00;;;;;;5042933;28;20588;-56
2021/12/19 05:52:17;;;;;;;6.23;5.03;;;8.30;1.00;;;;;;5041735;28;20978;-57
2021/12/19 05:54:43;;;;;;;6.40;5.10;;;8.30;1.00;;;;;;5042757;28;20216;-58
2021/12/19 05:57:09;;;;;;;9.17;5.77;;;8.30;1.00;;;;;;5044695;28;20185;-59
2021/12/19 05:59:35;;;;;;;5.50;5.00;;;8.30;1.00;;;;;;5046634;28;20194;-58
2021/12/19 06:02:01;;;;;;;8.80;5.80;;;8.30;1.00;;;;;;5047316;28;20457;-56
2021/12/19 06:04:27;;;;;;;9.53;4.90;;;8.30;1.00;;;;;;5042971;28;20912;-57
2021/12/19 06:06:52;;;;;;;11.13;6.23;;;8.30;1.00;;;;;;5049474;28;20448;-57
2021/12/19 06:09:18;;;;;;;9.40;6.10;;;;;;;;;;5048923;28;20275;-57
2021/12/19 06:11:44;;;;;;;7.20;5.97;;;;;;;;;;5048108;28;20197;-56
2021/12/19 06:14:11;;;;;;;7.90;6.23;;;8.30;1.00;;;;;;5050908;28;20493;-58
2021/12/19 06:16:36;;;;;;;10.23;6.40;;;8.20;1.00;;;;;;5048264;28;20470;-57
2021/12/19 06:19:02;;;;;;;8.23;5.67;;;8.10;1.00;;;;;;5049237;28;20191;-59
2021/12/19 06:21:28;;;;;;;8.13;7.30;;;8.20;1.00;;;;;;5051052;28;20212;-58
2021/12/19 06:23:53;;;;;;;14.93;6.77;;;8.10;1.00;;;;;;5054942;28;20469;-56
2021/12/19 06:26:19;;;;;;;8.37;6.03;;;8.20;1.00;;;;;;5061918;28;20519;-58
2021/12/19 06:28:45;;;;;;;8.70;5.70;;;8.20;1.00;;;;;;5055756;28;20997;-58
2021/12/19 06:31:10;;;;;;;9.33;6.47;;;8.10;1.00;;;;;;5056675;28;20216;-58
2021/12/19 06:33:36;;;;;;;8.50;6.60;;;8.00;1.00;;;;;;5062238;28;20271;-57
2021/12/19 06:36:02;;;;;;;7.30;6.57;;;8.10;1.00;;;;;;5056527;28;20199;-57
2021/12/19 06:38:28;;;;;;;7.63;6.43;;;8.00;1.00;;;;;;5053263;28;20203;-58
2021/12/19 06:40:53;;;;;;;11.43;8.50;;;7.90;1.00;;;;;;5053903;28;20455;-58
2021/12/19 06:43:19;;;;;;;11.70;7.83;;;8.00;1.00;;;;;;5059700;28;20266;-57
2021/12/19 06:45:45;;;;;;;11.30;7.87;;;7.90;1.00;;;;;;5053296;28;20727;-59
2021/12/19 06:48:11;;;;;;;8.73;7.37;;;;;;;;;;5059553;28;20187;-58
2021/12/19 06:50:36;;;;;;;9.60;8.70;;;7.90;1.00;;;;;;5050542;28;20363;-57
2021/12/19 06:53:02;;;;;;;10.67;7.70;;;7.90;1.00;;;;;;5052639;28;20501;-57
2021/12/19 06:55:27;;;;;;;9.83;7.93;;;8.00;1.00;;;;;;5055853;28;20208;-59
2021/12/19 06:57:53;;;;;;;9.50;7.50;;;8.00;1.00;;;;;;5054599;28;20703;-58
2021/12/19 07:00:22;;;;;;;11.53;7.80;;;7.90;1.00;;;;;;5053896;28;20183;-60
2021/12/19 07:02:48;;;;;;;9.67;7.30;;;7.90;1.00;;;;;;5056219;28;20643;-56
2021/12/19 07:05:14;;;;;;;7.93;7.13;;;;;;;;;;5053349;28;20455;-57
2021/12/19 07:07:40;;;;;;;9.80;8.17;;;7.80;1.00;;;;;;5058388;28;20461;-56
2021/12/19 07:10:08;;;;;;;9.90;8.43;;;7.90;1.00;;;;;;5050257;28;20452;-55
2021/12/19 07:12:34;;;;;;;9.30;7.83;;;7.90;1.00;;;;;;5050897;28;20422;-57
2021/12/19 07:14:59;;;;;;;12.40;8.93;;;7.80;1.00;;;;;;5047841;28;20470;-57
2021/12/19 07:17:25;;;;;;;11.00;7.60;;;7.80;1.00;;;;;;5052607;28;20429;-56
2021/12/19 07:19:51;;;;;;;11.57;8.03;;;7.90;1.00;;;;;;5048878;28;20188;-57
2021/12/19 07:22:18;;;;;;;9.07;8.10;;;;;;;;;;5051303;28;20195;-55
2021/12/19 07:24:45;;;;;;;9.73;7.50;;;7.90;1.00;;;;;;5056190;28;20715;-56
2021/12/19 07:27:11;;;;;;;9.37;7.73;;;7.80;1.00;;;;;;5055083;28;20448;-56
2021/12/19 07:29:37;;;;;;;10.73;7.67;;;;;;;;;;5056991;28;20506;-57
2021/12/19 07:32:03;;;;;;;12.43;8.43;;;7.80;1.00;;;;;;5055804;28;20487;-57
2021/12/19 07:34:32;;;;;;;13.33;9.20;;;7.70;1.00;;;;;;5053474;28;20495;-57
2021/12/19 07:36:59;;;;;;;11.43;9.07;;;;;;;;;;5055195;28;20450;-56
2021/12/19 07:42:00;;;;;;;11.67;8.20;;;7.70;1.00;;;;;;5049986;28;20420;-56
2021/12/19 07:44:25;;;;;;;9.80;8.10;;;7.60;1.00;;;;;;5054698;28;20927;-58
2021/12/19 07:46:51;;;;;;;14.00;9.30;;;7.70;1.00;;;;;;5052755;28;20440;-58
2021/12/19 07:49:16;;;;;;;14.20;8.30;;;7.70;1.00;;;;;;5059716;28;20184;-57
2021/12/19 07:51:42;;;;;;;11.17;7.90;;;7.70;1.00;;;;;;5054382;28;20173;-60
2021/12/19 07:54:08;;;;;;;9.07;7.17;;;7.70;1.00;;;;;;5054039;28;20180;-59
2021/12/19 07:56:33;;;;;;;10.00;8.00;;;7.60;1.00;;;;;;5053308;28;20334;-57
2021/12/19 07:58:59;;;;;;;14.23;7.77;;;7.70;1.00;;;;;;5058173;28;20215;-59
2021/12/19 08:01:24;;;;;;;12.27;8.80;;;7.60;4.00;;;;;;5057535;28;20192;-57
2021/12/19 08:03:50;;;;;;;10.57;8.23;;;7.50;10.40;;;;;;5056540;28;20254;-56
2021/12/19 08:06:15;;;;;;;9.90;7.47;;;7.50;16.60;;;;;;5059119;28;20181;-57
2021/12/19 08:08:47;;;;;;;15.30;9.50;;;7.60;23.90;;;;;;5055758;28;20266;-56
2021/12/19 08:13:56;;;;;;;9.60;8.60;;;7.70;19.80;;;;;;5050673;28;20507;-56
2021/12/19 08:16:22;;;;;;;10.83;7.60;;;;;;;;;;5054155;28;20874;-58
2021/12/19 08:18:49;;;;;;;9.50;8.03;;;7.60;17.10;;;;;;5049285;28;20188;-59
2021/12/19 08:21:15;;;;;;;9.53;7.80;;;;;;;;;;5051307;28;20421;-58
2021/12/19 08:23:40;;;;;;;10.83;9.17;;;7.60;28.20;;;;;;5051620;28;20435;-57
2021/12/19 08:26:06;;;;;;;13.00;9.63;;;;;;;;;;5056868;28;20537;-57
2021/12/19 08:28:32;;;;;;;10.73;7.80;;;7.60;23.90;;;;;;5054470;28;20192;-59
2021/12/19 08:30:58;;;;;;;14.70;9.17;;;;;;;;;;5057475;28;20453;-58
2021/12/19 08:33:24;;;;;;;16.83;10.73;;;;;;;;;;5051489;28;20613;-58
2021/12/19 08:35:49;;;;;;;16.60;9.50;;;7.50;24.70;;;;;;5050453;28;20513;-59
2021/12/19 08:38:15;;;;;;;15.43;9.63;;;;;;;;;;5060250;28;20765;-58
2021/12/19 08:40:41;;;;;;;12.90;9.43;;;7.50;25.90;;;;;;5056114;28;20172;-60
2021/12/19 08:43:07;;;;;;;9.67;8.60;;;7.60;25.50;;;;;;5055067;28;20879;-60
2021/12/19 08:45:33;;;;;;;10.50;9.07;;;7.60;25.00;;;;;;5061911;28;20476;-57
2021/12/19 08:48:00;;;;;;;10.03;8.43;;;7.50;23.80;;;;;;5056023;28;20249;-59
2021/12/19 08:50:26;;;;;;;9.23;8.33;;;;;;;;;;5058038;28;20195;-60
2021/12/19 08:52:52;;;;;;;11.90;9.47;;;7.60;23.90;;;;;;5057322;28;20435;-57
2021/12/19 08:55:18;;;;;;;10.07;8.10;;;7.70;21.20;;;;;;5055765;28;20532;-57
2021/12/19 08:57:44;;;;;;;11.93;9.40;;;7.70;19.20;;;;;;5057180;28;20426;-59
2021/12/19 09:00:11;;;;;;;10.13;7.90;;;7.70;19.60;;;;;;5052454;28;20436;-58
2021/12/19 09:02:38;;;;;;;13.20;8.90;;;7.70;17.70;;;;;;5052483;28;20185;-58
2021/12/19 09:05:04;;;;;;;12.70;8.03;;;7.70;16.40;;;;;;5056584;28;20899;-60
2021/12/19 09:07:29;;;;;;;12.53;7.90;;;7.80;10.90;;;;;;5054209;28;20446;-58
2021/12/19 09:09:55;;;;;;;9.80;8.00;;;7.70;10.50;;;;;;5053621;28;20478;-58
2021/12/19 09:12:21;;;;;;;9.13;8.00;;;;;;;;;;5062020;28;20283;-59
2021/12/19 09:14:47;;;;;;;9.37;8.30;;;7.70;11.00;;;;;;5054789;28;20200;-58
2021/12/19 09:17:13;;;;;;;9.07;7.97;;;;;;;;;;5059620;28;20708;-59
2021/12/19 09:19:38;;;;;;;9.23;8.20;;;7.60;15.70;;;;;;5059046;28;20598;-58
2021/12/19 09:22:04;;;;;;;9.33;8.23;;;7.70;15.10;;;;;;5059865;28;20480;-57
2021/12/19 09:24:30;;;;;;;9.10;8.20;;;7.80;8.40;;;;;;5061355;28;20691;-57
2021/12/19 09:26:56;;;;;;;9.07;8.17;;;7.80;8.00;;;;;;5059647;28;20191;-58
2021/12/19 09:29:26;;;;;;;11.30;9.23;;;;;;;;;;5055647;28;20236;-58
2021/12/19 09:31:51;;;;;;;9.60;8.63;;;7.80;5.30;;;;;;5061419;28;20318;-59
2021/12/19 09:34:17;;;;;;;9.93;8.80;;;7.90;3.00;;;;;;5055759;28;20493;-60
2021/12/19 09:36:43;;;;;;;11.77;8.10;;;;;;;;;;5055854;28;20218;-59
2021/12/19 09:39:08;;;;;;;10.00;8.70;;;7.80;1.10;;;;;;5050861;28;20184;-59
2021/12/19 09:41:42;;;;;;;10.17;8.67;;;7.80;7.30;;;;;;5059885;28;20439;-57
2021/12/19 09:44:09;;;;;;;9.60;8.60;;;7.70;14.80;;;;;;5057227;28;20184;-58
2021/12/19 09:46:37;;;;;;;10.47;7.90;;;7.60;12.80;;;;;;5052749;28;20464;-59
2021/12/19 09:49:06;;;;;;;8.90;8.00;;;7.70;15.10;;;;;;5052285;28;20417;-58
2021/12/19 09:51:31;;;;;;;10.50;6.97;;;7.80;10.60;;;;;;5057623;28;20443;-58
2021/12/19 09:53:57;;;;;;;10.23;7.00;;;7.80;4.90;;;;;;5056901;28;20830;-59
2021/12/19 09:56:22;;;;;;;12.47;8.20;;;7.90;1.00;;;;;;5061996;28;20290;-58
2021/12/19 09:58:50;;;;;;;10.00;7.87;;;7.90;2.70;;;;;;5063874;28;20267;-58
2021/12/19 10:01:16;;;;;;;7.80;7.00;;;7.90;1.00;;;;;;5059377;28;20183;-58
2021/12/19 10:03:41;;;;;;;9.70;8.70;;;7.90;1.20;;;;;;5063931;28;20457;-58
2021/12/19 10:06:13;;;;;;;9.50;8.30;;;;;;;;;;5055524;28;20447;-60
2021/12/19 10:08:40;;;;;;;8.93;8.00;;;;;;;;;;5058058;28;20188;-59
2021/12/19 10:11:13;;;;;;;10.50;8.83;;;7.90;1.00;;;;;;5063735;28;20972;-57
2021/12/19 10:13:39;;;;;;;9.63;8.63;;;7.90;2.70;;;;;;5061109;28;20437;-58
2021/12/19 10:16:29;;;;;;;10.47;7.70;;;7.90;3.30;;;;;;5059177;28;20479;-59
2021/12/19 10:19:00;;;;;;;9.83;8.80;;;7.90;5.20;;;;;;5061854;28;20445;-58
2021/12/19 10:21:27;;;;;;;9.70;8.50;;;7.90;4.20;;;;;;5055760;28;20441;-58
2021/12/19 10:23:59;;;;;;;10.33;9.30;;;7.80;5.70;;;;;;5067433;28;20488;-57
2021/12/19 10:26:25;;;;;;;10.93;9.73;;;7.70;10.40;;;;;;5073257;28;20774;-58
2021/12/19 10:28:56;;;;;;;10.33;8.70;;;7.80;6.00;;;;;;5062839;28;20435;-61
2021/12/19 10:31:32;;;;;;;9.17;8.00;;;7.80;5.80;;;;;;5060614;28;20219;-59
2021/12/19 10:33:58;;;;;;;12.67;8.10;;;7.90;4.90;;;;;;5061252;28;20416;-58
2021/12/19 10:36:24;;;;;;;8.73;7.60;;;7.90;1.20;;;;;;5057771;28;20484;-58
2021/12/19 10:38:52;;;;;;;9.43;7.03;;;7.90;1.00;;;;;;5058647;28;20425;-60
2021/12/19 10:41:33;;;;;;;8.97;8.07;;;7.90;1.00;;;;;;5062507;28;20806;-59
2021/12/19 10:44:04;;;;;;;9.90;7.70;;;7.80;5.90;;;;;;5060473;28;20458;-59
2021/12/19 10:46:34;;;;;;;8.30;6.87;;;7.80;6.60;;;;;;5061051;28;20487;-59
2021/12/19 10:49:02;;;;;;;10.47;7.77;;;7.90;2.90;;;;;;5057727;28;20452;-59
2021/12/19 10:51:32;;;;;;;11.03;7.30;;;7.90;5.10;;;;;;5065633;28;20469;-60
2021/12/19 10:54:03;;;;;;;9.80;6.50;;;7.80;4.90;;;;;;5055155;28;20442;-59
2021/12/19 10:56:34;;;;;;;8.70;7.10;;;7.90;3.00;;;;;;5063275;28;20442;-59
2021/12/19 10:59:00;;;;;;;9.80;7.17;;;;;;;;;;5052746;28;20438;-59
2021/12/19 11:01:31;;;;;;;7.97;7.03;;;7.90;1.00;;;;;;5058574;28;20453;-59
2021/12/19 11:03:58;;;;;;;9.53;7.47;;;8.00;1.00;;;;;;5055471;28;20429;-60
2021/12/19 11:06:28;;;;;;;7.70;6.90;;;8.00;1.00;;;;;;5050995;28;20439;-59
2021/12/19 11:08:55;;;;;;;7.93;6.83;;;8.00;1.00;;;;;;5054494;28;22210;-60
2021/12/19 11:11:48;;;;;;;8.50;7.20;;;8.10;1.00;;;;;;5050411;28;20899;-60
2021/12/19 11:14:33;;;;;;;10.57;6.43;;;8.00;1.00;;;;;;5053134;28;20431;-58
2021/12/19 11:17:09;;;;;;;8.77;6.53;;;8.00;1.00;;;;;;5052672;28;20463;-62
2021/12/19 11:19:36;;;;;;;11.07;7.90;;;8.10;1.00;;;;;;5052619;28;20484;-60
2021/12/19 11:22:02;;;;;;;10.00;6.97;;;8.10;1.00;;;;;;5049834;28;20447;-62
2021/12/19 11:24:28;;;;;;;10.33;8.20;;;8.00;1.00;;;;;;5050476;28;20463;-59
2021/12/19 11:26:56;;;;;;;10.43;8.50;;;7.90;1.00;;;;;;5057807;28;20568;-58
2021/12/19 11:29:29;;;;;;;8.47;7.60;;;7.80;1.10;;;;;;5049551;28;20473;-57
2021/12/19 11:31:58;;;;;;;12.23;7.50;;;7.80;3.70;;;;;;5050893;28;20449;-58
2021/12/19 11:34:59;;;;;;;9.83;8.80;;;7.90;3.00;;;;;;5052801;28;20748;-58
2021/12/19 11:37:32;;;;;;;9.27;7.77;;;7.90;2.40;;;;;;5048811;28;20470;-59
2021/12/19 11:39:58;;;;;;;9.30;8.23;;;7.80;4.90;;;;;;5048232;28;20439;-60
2021/12/19 11:42:39;;;;;;;8.23;7.43;;;7.90;2.80;;;;;;5052353;28;20795;-60
2021/12/19 11:45:33;;;;;;;10.20;8.17;;;7.90;2.80;;;;;;5046560;28;20708;-59
2021/12/19 11:48:10;;;;;;;14.33;8.67;;;7.90;5.80;;;;;;5047082;28;20454;-57
2021/12/19 11:51:11;;;;;;;8.70;7.83;;;7.90;7.80;;;;;;5053384;28;20453;-59
2021/12/19 11:53:39;;;;;;;13.13;7.33;;;8.00;8.90;;;;;;5047978;28;20465;-59
2021/12/19 11:56:06;;;;;;;8.50;7.13;;;8.00;3.50;;;;;;5048655;28;20465;-59
2021/12/19 11:58:49;;;;;;;9.50;7.70;;;7.90;8.00;;;;;;5052263;28;20434;-58
2021/12/19 12:01:29;;;;;;;9.20;7.80;;;8.00;7.70;;;;;;5050751;28;20554;-58
2021/12/19 12:03:55;;;;;;;9.33;7.33;;;8.00;5.50;;;;;;5047657;28;20486;-55
2021/12/19 12:06:28;;;;;;;9.27;7.63;;;7.90;7.10;;;;;;5048790;28;20554;-60
2021/12/19 12:09:09;;;;;;;11.97;7.40;;;;;;;;;;5046546;28;20566;-59
2021/12/19 12:11:40;;;;;;;10.87;6.97;;;7.90;6.20;;;;;;5045754;28;20458;-59
2021/12/19 12:14:21;;;;;;;8.67;7.00;;;7.80;5.60;;;;;;5047767;28;20439;-57
2021/12/19 12:17:04;;;;;;;10.07;5.50;;;7.80;5.90;;;;;;5046826;28;20478;-59
2021/12/19 12:19:38;;;;;;;7.90;7.10;;;7.90;5.70;;;;;;5045594;28;21174;-59
2021/12/19 12:22:23;;;;;;;5.33;4.83;;;7.90;1.20;;;;;;5048724;28;20450;-58
2021/12/19 12:25:31;;;;;;;8.43;6.83;;;8.00;1.20;;;;;;5046269;28;20439;-59
2021/12/19 12:28:04;;;;;;;8.93;7.13;;;8.00;1.00;;;;;;5049234;28;20915;-58
2021/12/19 12:30:36;;;;;;;7.63;5.60;;;8.00;1.00;;;;;;5045975;28;21045;-58
2021/12/19 12:33:04;;;;;;;16.60;6.60;;;8.00;2.40;;;;;;5053576;28;20449;-57
2021/12/19 12:35:32;;;;;;;9.33;6.87;;;7.90;3.20;;;;;;5051243;28;20470;-58
2021/12/19 12:37:59;;;;;;;10.23;6.80;;;7.90;5.50;;;;;;5047763;28;20447;-57
2021/12/19 12:40:30;;;;;;;9.90;6.83;;;7.90;2.80;;;;;;5052841;28;20473;-59
2021/12/19 12:43:02;;;;;;;7.23;6.50;;;8.00;1.20;;;;;;5049454;28;20505;-57
2021/12/19 12:45:29;;;;;;;8.57;6.70;;;8.00;1.00;;;;;;5060824;28;20988;-58
2021/12/19 12:47:55;;;;;;;10.70;5.53;;;8.00;1.00;;;;;;5059172;28;21045;-59
2021/12/19 12:50:21;;;;;;;9.00;7.07;;;8.00;1.00;;;;;;5057110;28;20447;-59
2021/12/19 12:52:46;;;;;;;8.00;5.90;;;8.00;1.00;;;;;;5060760;28;20189;-58
2021/12/19 12:55:14;;;;;;;8.33;6.10;;;8.10;1.00;;;;;;5058861;28;20466;-58
2021/12/19 12:57:41;;;;;;;9.03;4.87;;;8.10;1.00;;;;;;5055524;28;20272;-59
2021/12/19 13:00:18;;;;;;;6.93;4.53;;;8.10;1.00;;;;;;5056296;28;20435;-59
2021/12/19 13:02:45;;;;;;;7.00;4.60;;;8.00;1.00;;;;;;5056630;28;20446;-57
2021/12/19 13:05:12;;;;;;;6.70;4.07;;;8.00;1.00;;;;;;5052618;28;20466;-59
2021/12/19 13:07:38;;;;;;;4.60;3.27;;;;;;;;;;5055748;28;20499;-57
2021/12/19 13:10:05;;;;;;;7.10;3.43;;;8.00;1.00;;;;;;5062754;28;20442;-57
2021/12/19 13:12:38;;;;;;;3.97;3.50;;;8.00;5.70;;;;;;5056596;28;20418;-58
2021/12/19 13:15:22;;;;;;;5.20;3.60;;;7.90;8.30;;;;;;5053543;28;20855;-59
2021/12/19 13:17:50;;;;;;;3.33;2.97;;;8.00;8.50;;;;;;5060736;28;20507;-58
2021/12/19 13:20:17;;;;;;;5.83;3.50;;;8.00;9.10;;;;;;5054716;28;21036;-59
2021/12/19 13:22:54;;;;;;;5.47;4.30;;;7.90;16.10;;;;;;5051432;28;20535;-58
2021/12/19 13:25:44;;;;;;;7.03;4.77;;;7.90;19.70;;;;;;5051785;28;20453;-58
2021/12/19 13:28:12;;;;;;;6.30;4.10;;;7.90;26.90;;;;;;5051879;28;20495;-59
2021/12/19 13:30:43;;;;;;;7.37;5.17;;;8.00;23.90;;;;;;5056429;28;20605;-60
2021/12/19 13:33:11;;;;;;;8.33;4.90;;;8.00;28.50;;;;;;5060514;28;20437;-61
2021/12/19 13:35:47;;;;;;;7.00;5.10;;;7.90;33.30;;;;;;5062291;28;20469;-60
2021/12/19 13:38:14;;;;;;;6.70;4.50;;;7.80;47.80;;;;;;5060989;28;20450;-60
2021/12/19 13:40:52;;;;;;;6.70;5.33;;;7.70;99.90;;;;;;5064549;28;20461;-60
2021/12/19 13:43:20;;;;;;;5.87;4.80;;;7.70;99.90;;;;;;5064111;28;20421;-61
2021/12/19 13:45:57;;;;;;;7.07;4.93;;;7.70;99.90;;;;;;5063600;28;20809;-61
2021/12/19 13:48:24;;;;;;;6.27;5.03;;;7.70;99.90;;;;;;5062619;28;20434;-60
2021/12/19 13:50:59;;;;;;;7.40;4.77;;;7.70;99.90;;;;;;5059372;28;20487;-59
2021/12/19 13:53:27;;;;;;;9.10;4.70;;;7.70;99.90;;;;;;5062555;28;20453;-59
2021/12/19 13:56:00;;;;;;;6.97;4.77;;;7.70;99.90;;;;;;5055679;28;20437;-60
2021/12/19 13:58:32;;;;;;;5.47;3.97;;;7.80;99.90;;;;;;5064629;28;20509;-60
2021/12/19 14:01:00;;;;;;;5.03;3.10;;;7.80;99.90;;;;;;5055009;28;20446;-59
2021/12/19 14:03:36;;;;;;;5.60;3.27;;;7.80;99.90;;;;;;5061180;28;20500;-59
2021/12/19 14:06:02;;;;;;;2.80;2.60;;;7.70;99.90;;;;;;5056229;28;20442;-60
2021/12/19 14:08:30;;;;;;;12.43;8.07;;;7.80;99.90;;;;;;5062681;28;20817;-59
2021/12/19 14:11:06;;;;;;;8.83;6.83;;;7.70;99.90;;;;;;5057802;28;20191;-59
2021/12/19 14:13:34;;;;;;;4.57;4.17;;;7.70;99.90;;;;;;5061300;28;20452;-59
2021/12/19 14:16:01;;;;;;;4.57;3.80;;;7.70;99.90;;;;;;5055213;28;20472;-59
2021/12/19 14:18:28;;;;;;;3.90;3.07;;;7.80;99.90;;;;;;5059526;28;20429;-59
2021/12/19 14:20:54;;;;;;;4.33;2.60;;;7.70;99.90;;;;;;5069123;28;20437;-59
2021/12/19 14:23:21;;;;;;;3.10;2.50;;;7.70;99.90;;;;;;5050578;28;20989;-59